createdAt,value
2017-06-02T00:00:07.468Z,20.24
2017-06-02T00:01:07.063Z,20.20
2017-06-02T00:02:07.704Z,20.12
2017-06-02T00:03:07.320Z,20.11
2017-06-02T00:04:07.984Z,20.10
2017-06-02T00:05:07.685Z,20.14
2017-06-02T00:06:07.484Z,20.13
2017-06-02T00:07:07.077Z,20.09
2017-06-02T00:08:07.750Z,19.96
2017-06-02T00:09:07.402Z,19.85
2017-06-02T00:10:07.114Z,19.88
2017-06-02T00:11:07.749Z,19.95
2017-06-02T00:12:07.333Z,19.98
2017-06-02T00:13:08.068Z,20.01
2017-06-02T00:14:07.682Z,19.98
2017-06-02T00:15:07.433Z,20.02
2017-06-02T00:16:07.982Z,19.96
2017-06-02T00:17:07.689Z,19.98
2017-06-02T00:18:07.460Z,20.00
2017-06-02T00:19:07.083Z,19.96
2017-06-02T00:20:07.822Z,19.88
2017-06-02T00:21:07.360Z,19.84
2017-06-02T00:22:08.025Z,19.85
2017-06-02T00:23:07.664Z,19.86
2017-06-02T00:24:07.345Z,19.88
2017-06-02T00:25:08.067Z,19.89
2017-06-02T00:26:07.679Z,19.94
2017-06-02T00:27:07.325Z,19.97
2017-06-02T00:28:07.992Z,19.91
2017-06-02T00:29:07.624Z,19.89
2017-06-02T00:30:07.329Z,19.79
2017-06-02T00:31:07.939Z,19.76
2017-06-02T00:32:07.574Z,19.78
2017-06-02T00:33:07.223Z,19.83
2017-06-02T00:34:07.897Z,19.78
2017-06-02T00:35:07.588Z,19.75
2017-06-02T00:36:14.926Z,19.67
2017-06-02T00:37:07.027Z,19.64
2017-06-02T00:38:07.767Z,19.65
2017-06-02T00:39:07.380Z,19.67
2017-06-02T00:40:08.074Z,19.67
2017-06-02T00:41:07.640Z,19.76
2017-06-02T00:42:07.384Z,19.67
2017-06-02T00:43:08.007Z,19.66
2017-06-02T00:44:07.623Z,19.57
2017-06-02T00:45:07.306Z,19.58
2017-06-02T00:46:07.954Z,19.57
2017-06-02T00:47:07.616Z,19.65
2017-06-02T00:48:07.249Z,19.69
2017-06-02T00:49:07.916Z,19.66
2017-06-02T00:50:07.568Z,19.63
2017-06-02T00:51:07.207Z,19.57
2017-06-02T00:52:07.846Z,19.53
2017-06-02T00:53:07.485Z,19.44
2017-06-02T00:54:07.118Z,19.42
2017-06-02T00:55:07.816Z,19.43
2017-06-02T00:56:07.474Z,19.50
2017-06-02T00:57:07.217Z,19.49
2017-06-02T00:58:07.792Z,19.44
2017-06-02T00:59:07.409Z,19.34
2017-06-02T01:00:07.044Z,19.34
2017-06-02T01:01:07.706Z,19.42
2017-06-02T01:02:07.378Z,19.53
2017-06-02T01:03:08.110Z,19.45
2017-06-02T01:04:07.671Z,19.41
2017-06-02T01:05:07.355Z,19.42
2017-06-02T01:06:07.045Z,19.51
2017-06-02T01:07:07.688Z,19.55
2017-06-02T01:08:07.354Z,19.47
2017-06-02T01:09:07.068Z,19.32
2017-06-02T01:10:07.752Z,19.41
2017-06-02T01:11:07.399Z,19.40
2017-06-02T01:12:07.061Z,19.35
2017-06-02T01:13:07.731Z,19.43
2017-06-02T01:14:07.320Z,19.35
2017-06-02T01:15:08.051Z,19.34
2017-06-02T01:16:07.623Z,19.31
2017-06-02T01:17:07.378Z,19.36
2017-06-02T01:18:07.064Z,19.36
2017-06-02T01:19:07.705Z,19.32
2017-06-02T01:20:07.367Z,19.28
2017-06-02T01:21:08.023Z,19.23
2017-06-02T01:22:07.645Z,19.29
2017-06-02T01:23:07.310Z,19.23
2017-06-02T01:24:08.029Z,19.23
2017-06-02T01:25:07.676Z,19.18
2017-06-02T01:26:07.281Z,19.19
2017-06-02T01:27:07.933Z,19.25
2017-06-02T01:28:07.625Z,19.15
2017-06-02T01:29:07.242Z,19.21
2017-06-02T01:30:07.881Z,19.23
2017-06-02T01:31:07.538Z,19.20
2017-06-02T01:32:07.166Z,19.16
2017-06-02T01:33:07.850Z,19.23
2017-06-02T01:34:07.481Z,19.15
2017-06-02T01:35:07.133Z,19.19
2017-06-02T01:36:07.907Z,19.14
2017-06-02T01:37:07.538Z,19.10
2017-06-02T01:38:07.191Z,19.11
2017-06-02T01:39:07.863Z,19.05
2017-06-02T01:40:07.497Z,19.01
2017-06-02T01:41:07.110Z,19.02
2017-06-02T01:42:07.783Z,19.06
2017-06-02T01:43:07.546Z,19.05
2017-06-02T01:44:07.121Z,19.08
2017-06-02T01:45:07.782Z,19.02
2017-06-02T01:46:07.411Z,18.97
2017-06-02T01:47:07.064Z,18.98
2017-06-02T01:48:07.719Z,18.99
2017-06-02T01:49:07.339Z,19.01
2017-06-02T01:50:08.080Z,18.97
2017-06-02T01:51:07.627Z,18.92
2017-06-02T01:52:07.266Z,18.95
2017-06-02T01:53:07.977Z,18.91
2017-06-02T01:54:07.599Z,18.86
2017-06-02T01:55:07.286Z,18.94
2017-06-02T01:56:07.918Z,18.96
2017-06-02T01:57:07.594Z,18.87
2017-06-02T01:58:07.277Z,18.81
2017-06-02T01:59:07.902Z,18.83
2017-06-02T02:00:07.569Z,18.83
2017-06-02T02:01:07.213Z,18.81
2017-06-02T02:02:07.887Z,18.78
2017-06-02T02:03:07.467Z,18.86
2017-06-02T02:04:07.169Z,18.83
2017-06-02T02:05:07.857Z,18.86
2017-06-02T02:06:07.587Z,18.84
2017-06-02T02:07:07.242Z,18.89
2017-06-02T02:08:07.883Z,18.93
2017-06-02T02:09:07.534Z,18.90
2017-06-02T02:10:07.231Z,18.83
2017-06-02T02:11:07.864Z,18.87
2017-06-02T02:12:07.530Z,18.89
2017-06-02T02:13:07.290Z,18.89
2017-06-02T02:14:07.878Z,18.89
2017-06-02T02:15:07.567Z,18.80
2017-06-02T02:16:07.168Z,18.64
2017-06-02T02:17:07.950Z,18.68
2017-06-02T02:18:07.691Z,18.52
2017-06-02T02:19:07.258Z,18.52
2017-06-02T02:20:07.945Z,18.55
2017-06-02T02:21:07.577Z,18.52
2017-06-02T02:22:07.213Z,18.57
2017-06-02T02:23:07.874Z,18.47
2017-06-02T02:24:07.537Z,18.47
2017-06-02T02:25:07.232Z,18.47
2017-06-02T02:26:07.877Z,18.54
2017-06-02T02:27:07.510Z,18.56
2017-06-02T02:28:07.284Z,18.52
2017-06-02T02:29:07.828Z,18.57
2017-06-02T02:30:07.528Z,18.57
2017-06-02T02:31:07.182Z,18.54
2017-06-02T02:32:07.852Z,18.52
2017-06-02T02:33:07.489Z,18.54
2017-06-02T02:34:07.159Z,18.54
2017-06-02T02:35:07.815Z,18.60
2017-06-02T02:36:07.694Z,18.60
2017-06-02T02:37:07.344Z,18.68
2017-06-02T02:38:07.951Z,18.67
2017-06-02T02:39:07.623Z,18.57
2017-06-02T02:40:07.370Z,18.52
2017-06-02T02:41:07.915Z,18.54
2017-06-02T02:42:07.586Z,18.51
2017-06-02T02:43:07.285Z,18.51
2017-06-02T02:44:07.844Z,18.46
2017-06-02T02:45:07.517Z,18.51
2017-06-02T02:46:07.233Z,18.53
2017-06-02T02:47:07.858Z,18.48
2017-06-02T02:48:07.509Z,18.39
2017-06-02T02:49:07.203Z,18.36
2017-06-02T02:50:07.828Z,18.36
2017-06-02T02:51:07.477Z,18.37
2017-06-02T02:52:07.190Z,18.44
2017-06-02T02:53:07.927Z,18.44
2017-06-02T02:54:07.593Z,18.50
2017-06-02T02:55:07.267Z,18.49
2017-06-02T02:56:07.898Z,18.54
2017-06-02T02:57:07.645Z,18.47
2017-06-02T02:58:07.284Z,18.45
2017-06-02T02:59:07.906Z,18.45
2017-06-02T03:00:07.661Z,18.39
2017-06-02T03:01:07.183Z,18.35
2017-06-02T03:02:07.883Z,18.37
2017-06-02T03:03:07.504Z,18.43
2017-06-02T03:04:07.168Z,18.38
2017-06-02T03:05:07.898Z,18.41
2017-06-02T03:06:07.654Z,18.39
2017-06-02T03:07:07.371Z,18.44
2017-06-02T03:08:07.948Z,18.32
2017-06-02T03:09:07.585Z,18.34
2017-06-02T03:10:07.227Z,18.34
2017-06-02T03:11:07.870Z,18.34
2017-06-02T03:12:07.596Z,18.31
2017-06-02T03:13:07.254Z,18.29
2017-06-02T03:14:07.878Z,18.28
2017-06-02T03:15:07.946Z,18.20
2017-06-02T03:16:07.628Z,18.19
2017-06-02T03:17:07.421Z,18.27
2017-06-02T03:18:07.016Z,18.29
2017-06-02T03:19:07.689Z,18.31
2017-06-02T03:20:07.313Z,18.29
2017-06-02T03:21:07.950Z,18.32
2017-06-02T03:22:07.644Z,18.29
2017-06-02T03:23:07.324Z,18.27
2017-06-02T03:24:07.928Z,18.16
2017-06-02T03:25:07.677Z,18.12
2017-06-02T03:26:07.246Z,18.09
2017-06-02T03:27:07.915Z,18.13
2017-06-02T03:28:07.698Z,18.09
2017-06-02T03:29:07.347Z,18.05
2017-06-02T03:30:07.955Z,18.04
2017-06-02T03:31:07.592Z,18.15
2017-06-02T03:32:07.302Z,18.14
2017-06-02T03:33:07.894Z,18.17
2017-06-02T03:34:07.596Z,18.21
2017-06-02T03:35:07.189Z,18.19
2017-06-02T03:36:07.033Z,18.20
2017-06-02T03:37:07.734Z,18.20
2017-06-02T03:38:07.313Z,18.14
2017-06-02T03:39:07.026Z,18.15
2017-06-02T03:40:07.667Z,18.19
2017-06-02T03:41:07.320Z,18.16
2017-06-02T03:42:08.017Z,18.04
2017-06-02T03:43:07.634Z,18.06
2017-06-02T03:44:07.267Z,18.00
2017-06-02T03:45:07.896Z,18.04
2017-06-02T03:46:07.544Z,18.16
2017-06-02T03:47:07.227Z,18.18
2017-06-02T03:48:07.845Z,18.23
2017-06-02T03:49:07.444Z,18.18
2017-06-02T03:50:07.088Z,18.12
2017-06-02T03:51:07.756Z,18.08
2017-06-02T03:52:07.412Z,18.02
2017-06-02T03:53:07.469Z,18.15
2017-06-02T03:54:07.149Z,18.15
2017-06-02T03:55:07.810Z,18.11
2017-06-02T03:56:07.455Z,18.10
2017-06-02T03:57:07.118Z,18.16
2017-06-02T03:58:07.785Z,18.18
2017-06-02T03:59:07.391Z,18.07
2017-06-02T04:00:07.065Z,18.12
2017-06-02T04:01:07.678Z,18.19
2017-06-02T04:02:07.352Z,18.23
2017-06-02T04:03:07.030Z,18.22
2017-06-02T04:04:07.663Z,18.23
2017-06-02T04:05:07.338Z,18.14
2017-06-02T04:06:07.089Z,18.25
2017-06-02T04:07:07.781Z,18.26
2017-06-02T04:08:07.436Z,18.26
2017-06-02T04:09:07.106Z,18.25
2017-06-02T04:10:07.774Z,18.32
2017-06-02T04:11:07.431Z,18.36
2017-06-02T04:12:07.070Z,18.28
2017-06-02T04:13:07.762Z,18.30
2017-06-02T04:14:07.380Z,18.36
2017-06-02T04:15:07.009Z,18.36
2017-06-02T04:16:08.135Z,18.34
2017-06-02T04:17:07.475Z,18.36
2017-06-02T04:18:07.122Z,18.48
2017-06-02T04:19:07.788Z,18.37
2017-06-02T04:20:07.465Z,18.41
2017-06-02T04:21:07.077Z,18.37
2017-06-02T04:22:07.752Z,18.34
2017-06-02T04:23:07.389Z,18.31
2017-06-02T04:24:07.012Z,18.35
2017-06-02T04:25:10.046Z,18.35
2017-06-02T04:26:07.034Z,18.35
2017-06-02T04:27:07.776Z,18.35
2017-06-02T04:28:07.408Z,18.35
2017-06-02T04:29:07.044Z,18.41
2017-06-02T04:30:07.673Z,18.47
2017-06-02T04:31:07.305Z,18.48
2017-06-02T04:32:07.982Z,18.44
2017-06-02T04:33:07.621Z,18.48
2017-06-02T04:34:07.316Z,18.50
2017-06-02T04:35:07.950Z,18.49
2017-06-02T04:36:07.695Z,18.52
2017-06-02T04:37:07.332Z,18.47
2017-06-02T04:38:07.954Z,18.47
2017-06-02T04:39:07.665Z,18.44
2017-06-02T04:40:07.287Z,18.47
2017-06-02T04:41:07.931Z,18.50
2017-06-02T04:42:07.717Z,18.55
2017-06-02T04:43:07.278Z,18.53
2017-06-02T04:44:08.015Z,18.64
2017-06-02T04:45:07.560Z,18.68
2017-06-02T04:46:07.254Z,18.71
2017-06-02T04:47:07.973Z,18.74
2017-06-02T04:48:07.590Z,18.75
2017-06-02T04:49:07.271Z,18.75
2017-06-02T04:50:07.936Z,18.73
2017-06-02T04:51:07.513Z,18.80
2017-06-02T04:52:07.211Z,18.80
2017-06-02T04:53:07.793Z,18.81
2017-06-02T04:54:07.499Z,18.87
2017-06-02T04:55:07.158Z,18.93
2017-06-02T04:56:07.831Z,18.75
2017-06-02T04:57:07.533Z,18.78
2017-06-02T04:58:07.207Z,18.77
2017-06-02T04:59:07.821Z,18.82
2017-06-02T05:00:07.467Z,18.84
2017-06-02T05:01:07.098Z,18.90
2017-06-02T05:02:07.781Z,18.90
2017-06-02T05:03:07.424Z,18.89
2017-06-02T05:04:07.086Z,18.91
2017-06-02T05:05:07.705Z,18.86
2017-06-02T05:06:07.560Z,18.88
2017-06-02T05:07:07.241Z,18.93
2017-06-02T05:08:07.886Z,18.98
2017-06-02T05:09:07.509Z,18.92
2017-06-02T05:10:07.171Z,18.91
2017-06-02T05:11:07.820Z,18.98
2017-06-02T05:12:07.453Z,18.97
2017-06-02T05:13:07.123Z,18.94
2017-06-02T05:14:07.756Z,18.92
2017-06-02T05:15:07.428Z,18.88
2017-06-02T05:16:07.092Z,18.94
2017-06-02T05:17:07.860Z,19.00
2017-06-02T05:18:07.594Z,18.97
2017-06-02T05:19:07.233Z,19.03
2017-06-02T05:20:07.872Z,19.08
2017-06-02T05:21:07.537Z,19.09
2017-06-02T05:22:07.239Z,19.14
2017-06-02T05:23:07.890Z,19.15
2017-06-02T05:24:07.495Z,19.18
2017-06-02T05:25:07.133Z,19.15
2017-06-02T05:26:07.808Z,19.17
2017-06-02T05:27:07.497Z,19.17
2017-06-02T05:28:07.166Z,19.15
2017-06-02T05:29:07.808Z,19.02
2017-06-02T05:30:07.428Z,18.90
2017-06-02T05:31:07.063Z,18.99
2017-06-02T05:32:07.765Z,19.00
2017-06-02T05:33:07.347Z,19.01
2017-06-02T05:34:08.005Z,19.04
2017-06-02T05:35:07.655Z,19.14
2017-06-02T05:36:07.484Z,19.02
2017-06-02T05:37:07.195Z,19.01
2017-06-02T05:38:07.808Z,19.14
2017-06-02T05:39:07.411Z,19.10
2017-06-02T05:40:07.091Z,19.21
2017-06-02T05:41:07.784Z,19.22
2017-06-02T05:42:07.463Z,19.24
2017-06-02T05:43:07.105Z,19.12
2017-06-02T05:44:07.714Z,19.18
2017-06-02T05:45:07.378Z,19.27
2017-06-02T05:46:08.053Z,19.31
2017-06-02T05:47:07.680Z,19.19
2017-06-02T05:48:07.295Z,19.28
2017-06-02T05:49:07.919Z,19.42
2017-06-02T05:50:07.563Z,19.52
2017-06-02T05:51:07.189Z,19.56
2017-06-02T05:52:07.867Z,19.49
2017-06-02T05:53:07.548Z,19.49
2017-06-02T05:54:07.191Z,19.45
2017-06-02T05:55:07.817Z,19.48
2017-06-02T05:56:07.515Z,19.51
2017-06-02T05:57:07.143Z,19.54
2017-06-02T05:58:07.843Z,19.56
2017-06-02T05:59:07.464Z,19.62
2017-06-02T06:00:07.308Z,19.52
2017-06-02T06:01:07.714Z,19.43
2017-06-02T06:02:07.349Z,19.48
2017-06-02T06:03:07.050Z,19.46
2017-06-02T06:04:07.701Z,19.55
2017-06-02T06:05:07.354Z,19.66
2017-06-02T06:06:07.143Z,19.72
2017-06-02T06:07:07.757Z,19.80
2017-06-02T06:08:07.465Z,19.78
2017-06-02T06:09:07.064Z,19.81
2017-06-02T06:10:07.805Z,19.86
2017-06-02T06:11:07.412Z,19.85
2017-06-02T06:12:07.082Z,19.84
2017-06-02T06:13:07.812Z,19.89
2017-06-02T06:14:07.433Z,19.89
2017-06-02T06:15:08.164Z,19.89
2017-06-02T06:16:07.725Z,19.96
2017-06-02T06:17:07.412Z,19.92
2017-06-02T06:18:07.232Z,19.96
2017-06-02T06:19:07.830Z,19.97
2017-06-02T06:20:07.532Z,20.02
2017-06-02T06:21:07.167Z,20.08
2017-06-02T06:22:08.938Z,20.06
2017-06-02T06:23:07.500Z,20.14
2017-06-02T06:24:07.060Z,20.13
2017-06-02T06:25:07.772Z,20.05
2017-06-02T06:26:07.437Z,20.08
2017-06-02T06:27:07.098Z,20.13
2017-06-02T06:28:07.850Z,20.16
2017-06-02T06:29:07.387Z,20.23
2017-06-02T06:30:07.062Z,20.18
2017-06-02T06:31:07.676Z,20.21
2017-06-02T06:32:07.348Z,20.18
2017-06-02T06:33:08.054Z,20.21
2017-06-02T06:34:07.672Z,20.20
2017-06-02T06:35:07.279Z,20.22
2017-06-02T06:36:07.076Z,20.25
2017-06-02T06:37:07.762Z,20.35
2017-06-02T06:38:07.442Z,20.40
2017-06-02T06:39:08.079Z,20.37
2017-06-02T06:40:07.857Z,20.34
2017-06-02T06:41:07.357Z,20.34
2017-06-02T06:42:08.048Z,20.29
2017-06-02T06:43:07.737Z,20.29
2017-06-02T06:44:07.364Z,20.23
2017-06-02T06:45:08.039Z,20.19
2017-06-02T06:46:07.640Z,20.24
2017-06-02T06:47:07.310Z,20.31
2017-06-02T06:48:07.982Z,20.30
2017-06-02T06:49:07.613Z,20.24
2017-06-02T06:50:07.267Z,20.27
2017-06-02T06:51:07.912Z,20.31
2017-06-02T06:52:07.573Z,20.30
2017-06-02T06:53:07.254Z,20.33
2017-06-02T06:54:07.855Z,20.36
2017-06-02T06:55:07.525Z,20.38
2017-06-02T06:56:07.197Z,20.38
2017-06-02T06:57:07.903Z,20.37
2017-06-02T06:58:07.535Z,20.36
2017-06-02T06:59:07.131Z,20.32
2017-06-02T07:00:07.814Z,20.37
2017-06-02T07:01:07.510Z,20.38
2017-06-02T07:02:07.137Z,20.44
2017-06-02T07:03:07.842Z,20.49
2017-06-02T07:04:08.535Z,20.48
2017-06-02T07:05:07.132Z,20.58
2017-06-02T07:06:07.879Z,20.55
2017-06-02T07:07:07.475Z,20.57
2017-06-02T07:08:07.137Z,20.56
2017-06-02T07:09:07.760Z,20.62
2017-06-02T07:10:07.385Z,20.59
2017-06-02T07:11:08.055Z,20.64
2017-06-02T07:12:07.698Z,20.70
2017-06-02T07:13:07.412Z,20.78
2017-06-02T07:14:08.044Z,20.82
2017-06-02T07:15:07.676Z,20.83
2017-06-02T07:16:07.386Z,20.87
2017-06-02T07:17:08.158Z,20.89
2017-06-02T07:18:07.846Z,20.87
2017-06-02T07:19:07.476Z,20.83
2017-06-02T07:20:07.129Z,20.78
2017-06-02T07:21:07.755Z,20.70
2017-06-02T07:22:07.386Z,20.73
2017-06-02T07:23:08.076Z,20.79
2017-06-02T07:24:07.674Z,20.89
2017-06-02T07:25:07.327Z,20.92
2017-06-02T07:26:08.014Z,21.02
2017-06-02T07:27:07.704Z,20.99
2017-06-02T07:28:07.397Z,20.94
2017-06-02T07:29:08.037Z,20.89
2017-06-02T07:30:07.670Z,20.98
2017-06-02T07:31:07.345Z,21.00
2017-06-02T07:32:07.994Z,21.00
2017-06-02T07:33:07.708Z,20.99
2017-06-02T07:34:07.358Z,21.05
2017-06-02T07:35:07.986Z,21.09
2017-06-02T07:36:07.831Z,21.14
2017-06-02T07:37:07.484Z,21.10
2017-06-02T07:38:07.146Z,21.16
2017-06-02T07:39:07.804Z,21.14
2017-06-02T07:40:07.398Z,21.13
2017-06-02T07:41:07.090Z,21.14
2017-06-02T07:42:07.763Z,21.14
2017-06-02T07:43:07.515Z,21.17
2017-06-02T07:44:08.074Z,21.21
2017-06-02T07:45:07.676Z,21.18
2017-06-02T07:46:07.241Z,21.18
2017-06-02T07:47:08.068Z,21.20
2017-06-02T07:48:07.623Z,21.24
2017-06-02T07:49:07.310Z,21.32
2017-06-02T07:50:07.866Z,21.39
2017-06-02T07:51:07.549Z,21.39
2017-06-02T07:52:07.179Z,21.31
2017-06-02T07:53:07.874Z,21.33
2017-06-02T07:54:07.539Z,21.28
2017-06-02T07:55:07.165Z,21.24
2017-06-02T07:56:07.796Z,21.24
2017-06-02T07:57:07.858Z,21.32
2017-06-02T07:58:07.115Z,21.37
2017-06-02T07:59:07.756Z,21.43
2017-06-02T08:00:07.386Z,21.37
2017-06-02T08:01:08.072Z,21.36
2017-06-02T08:02:07.696Z,21.36
2017-06-02T08:03:07.322Z,21.42
2017-06-02T08:04:08.066Z,21.43
2017-06-02T08:05:07.656Z,21.38
2017-06-02T08:06:07.454Z,21.38
2017-06-02T08:07:07.068Z,21.34
2017-06-02T08:08:07.762Z,21.37
2017-06-02T08:09:07.407Z,21.41
2017-06-02T08:10:08.122Z,21.43
2017-06-02T08:11:07.732Z,21.45
2017-06-02T08:12:07.321Z,21.44
2017-06-02T08:13:08.055Z,21.46
2017-06-02T08:14:07.822Z,21.48
2017-06-02T08:15:07.287Z,21.46
2017-06-02T08:16:08.949Z,21.52
2017-06-02T08:17:07.676Z,21.58
2017-06-02T08:18:14.924Z,21.59
2017-06-02T08:19:08.048Z,21.54
2017-06-02T08:20:07.687Z,21.59
2017-06-02T08:21:07.355Z,21.58
2017-06-02T08:22:07.988Z,21.58
2017-06-02T08:23:07.667Z,21.61
2017-06-02T08:24:07.319Z,21.61
2017-06-02T08:25:08.028Z,21.60
2017-06-02T08:26:07.623Z,21.64
2017-06-02T08:27:07.294Z,21.63
2017-06-02T08:28:07.967Z,21.68
2017-06-02T08:29:07.714Z,21.70
2017-06-02T08:30:07.272Z,21.71
2017-06-02T08:31:07.903Z,21.66
2017-06-02T08:32:07.530Z,21.69
2017-06-02T08:33:07.165Z,21.68
2017-06-02T08:34:07.831Z,21.72
2017-06-02T08:35:07.478Z,21.73
2017-06-02T08:36:07.375Z,21.74
2017-06-02T08:37:07.902Z,21.73
2017-06-02T08:38:07.596Z,21.72
2017-06-02T08:39:07.295Z,21.76
2017-06-02T08:40:07.911Z,21.80
2017-06-02T08:41:07.582Z,21.86
2017-06-02T08:42:07.274Z,21.86
2017-06-02T08:43:07.931Z,21.87
2017-06-02T08:44:07.584Z,21.92
2017-06-02T08:45:07.195Z,21.99
2017-06-02T08:46:07.819Z,22.04
2017-06-02T08:47:07.476Z,22.05
2017-06-02T08:48:07.112Z,22.07
2017-06-02T08:49:07.899Z,22.01
2017-06-02T08:50:07.471Z,22.03
2017-06-02T08:51:07.037Z,22.03
2017-06-02T08:52:07.716Z,22.05
2017-06-02T08:53:07.407Z,22.02
2017-06-02T08:54:07.107Z,22.01
2017-06-02T08:55:07.780Z,21.99
2017-06-02T08:56:07.365Z,21.96
2017-06-02T08:57:07.977Z,21.97
2017-06-02T08:58:07.658Z,22.03
2017-06-02T08:59:07.312Z,22.10
2017-06-02T09:00:07.991Z,22.15
2017-06-02T09:01:07.603Z,22.15
2017-06-02T09:02:07.310Z,22.12
2017-06-02T09:03:07.940Z,22.07
2017-06-02T09:04:07.681Z,22.05
2017-06-02T09:05:07.246Z,22.03
2017-06-02T09:06:08.030Z,22.03
2017-06-02T09:07:07.689Z,22.05
2017-06-02T09:08:07.367Z,22.07
2017-06-02T09:09:07.052Z,22.13
2017-06-02T09:10:07.767Z,22.13
2017-06-02T09:11:07.401Z,22.18
2017-06-02T09:12:07.073Z,22.23
2017-06-02T09:13:07.786Z,22.20
2017-06-02T09:14:07.412Z,22.24
2017-06-02T09:15:07.028Z,22.24
2017-06-02T09:16:07.711Z,22.23
2017-06-02T09:17:07.429Z,22.27
2017-06-02T09:18:07.175Z,22.27
2017-06-02T09:19:07.851Z,22.27
2017-06-02T09:20:07.515Z,22.31
2017-06-02T09:21:07.135Z,22.35
2017-06-02T09:22:07.804Z,22.30
2017-06-02T09:23:07.515Z,22.32
2017-06-02T09:24:07.139Z,22.32
2017-06-02T09:25:07.829Z,22.34
2017-06-02T09:26:07.422Z,22.43
2017-06-02T09:27:07.089Z,22.49
2017-06-02T09:28:07.825Z,22.42
2017-06-02T09:29:07.418Z,22.43
2017-06-02T09:30:07.110Z,22.41
2017-06-02T09:31:07.745Z,22.44
2017-06-02T09:32:07.415Z,22.41
2017-06-02T09:33:07.111Z,22.37
2017-06-02T09:34:07.705Z,22.34
2017-06-02T09:35:07.407Z,22.32
2017-06-02T09:36:07.297Z,22.29
2017-06-02T09:37:07.964Z,22.28
2017-06-02T09:38:07.626Z,22.28
2017-06-02T09:39:07.338Z,22.20
2017-06-02T09:40:08.043Z,22.18
2017-06-02T09:41:07.672Z,22.18
2017-06-02T09:42:07.333Z,22.25
2017-06-02T09:43:07.985Z,22.21
2017-06-02T09:44:07.652Z,22.18
2017-06-02T09:45:07.345Z,22.20
2017-06-02T09:46:07.922Z,22.18
2017-06-02T09:47:07.622Z,22.09
2017-06-02T09:48:07.327Z,22.07
2017-06-02T09:49:07.909Z,22.05
2017-06-02T09:50:07.609Z,22.08
2017-06-02T09:51:07.193Z,22.09
2017-06-02T09:52:07.839Z,22.12
2017-06-02T09:53:07.501Z,22.11
2017-06-02T09:54:07.163Z,22.16
2017-06-02T09:55:07.860Z,22.16
2017-06-02T09:56:07.506Z,22.20
2017-06-02T09:57:07.149Z,22.14
2017-06-02T09:58:07.844Z,22.06
2017-06-02T09:59:07.459Z,21.98
2017-06-02T10:00:07.148Z,21.92
2017-06-02T10:01:07.790Z,21.90
2017-06-02T10:02:07.478Z,21.86
2017-06-02T10:03:07.063Z,21.87
2017-06-02T10:04:07.726Z,21.81
2017-06-02T10:05:07.443Z,21.72
2017-06-02T10:06:07.245Z,21.60
2017-06-02T10:07:07.810Z,21.44
2017-06-02T10:08:07.470Z,21.30
2017-06-02T10:09:07.133Z,21.19
2017-06-02T10:10:07.825Z,21.11
2017-06-02T10:11:07.411Z,21.02
2017-06-02T10:12:07.534Z,20.88
2017-06-02T10:13:07.205Z,20.68
2017-06-02T10:14:07.820Z,20.51
2017-06-02T10:15:07.529Z,20.53
2017-06-02T10:16:07.135Z,20.64
2017-06-02T10:17:07.919Z,20.57
2017-06-02T10:18:07.608Z,20.39
2017-06-02T10:19:07.365Z,20.45
2017-06-02T10:20:07.998Z,20.30
2017-06-02T10:21:07.585Z,20.08
2017-06-02T10:22:07.252Z,19.95
2017-06-02T10:23:07.869Z,19.78
2017-06-02T10:24:07.654Z,19.76
2017-06-02T10:25:07.294Z,19.73
2017-06-02T10:26:07.910Z,19.51
2017-06-02T10:27:07.624Z,19.17
2017-06-02T10:28:07.270Z,19.34
2017-06-02T10:29:07.854Z,19.18
2017-06-02T10:30:07.575Z,19.30
2017-06-02T10:31:07.228Z,19.06
2017-06-02T10:32:07.830Z,19.14
2017-06-02T10:33:07.483Z,19.03
2017-06-02T10:34:07.169Z,19.16
2017-06-02T10:35:07.896Z,19.21
2017-06-02T10:36:07.764Z,19.15
2017-06-02T10:37:07.433Z,19.24
2017-06-02T10:38:07.059Z,19.01
2017-06-02T10:39:07.693Z,19.14
2017-06-02T10:40:07.397Z,19.06
2017-06-02T10:41:08.004Z,19.16
2017-06-02T10:42:07.655Z,19.24
2017-06-02T10:43:07.321Z,19.36
2017-06-02T10:44:07.926Z,19.36
2017-06-02T10:45:07.624Z,19.41
2017-06-02T10:46:07.247Z,19.40
2017-06-02T10:47:07.892Z,19.49
2017-06-02T10:48:07.571Z,19.53
2017-06-02T10:49:07.219Z,19.55
2017-06-02T10:50:07.889Z,19.46
2017-06-02T10:51:07.487Z,19.45
2017-06-02T10:52:07.134Z,19.42
2017-06-02T10:53:07.805Z,19.47
2017-06-02T10:54:07.472Z,19.52
2017-06-02T10:55:07.147Z,19.61
2017-06-02T10:56:07.842Z,19.74
2017-06-02T10:57:07.429Z,19.81
2017-06-02T10:58:07.054Z,19.86
2017-06-02T10:59:07.793Z,19.84
2017-06-02T11:00:07.394Z,19.86
2017-06-02T11:01:07.058Z,19.90
2017-06-02T11:02:07.667Z,19.93
2017-06-02T11:03:07.302Z,19.97
2017-06-02T11:04:07.979Z,19.89
2017-06-02T11:05:07.684Z,19.95
2017-06-02T11:06:07.426Z,19.83
2017-06-02T11:07:08.036Z,19.78
2017-06-02T11:08:07.624Z,19.70
2017-06-02T11:09:07.320Z,19.84
2017-06-02T11:10:07.953Z,19.94
2017-06-02T11:11:07.583Z,19.96
2017-06-02T11:12:07.243Z,20.02
2017-06-02T11:13:07.894Z,20.00
2017-06-02T11:14:07.580Z,19.98
2017-06-02T11:15:07.228Z,19.96
2017-06-02T11:16:07.916Z,19.95
2017-06-02T11:17:07.624Z,19.97
2017-06-02T11:18:07.400Z,19.98
2017-06-02T11:19:07.051Z,19.95
2017-06-02T11:20:08.733Z,19.97
2017-06-02T11:21:07.369Z,19.98
2017-06-02T11:22:07.979Z,19.98
2017-06-02T11:23:07.628Z,19.98
2017-06-02T11:24:07.304Z,20.01
2017-06-02T11:25:07.892Z,19.99
2017-06-02T11:26:07.625Z,19.91
2017-06-02T11:27:07.253Z,19.98
2017-06-02T11:28:07.897Z,19.96
2017-06-02T11:29:07.597Z,19.96
2017-06-02T11:30:07.226Z,20.05
2017-06-02T11:31:07.850Z,20.13
2017-06-02T11:32:07.451Z,20.09
2017-06-02T11:33:07.133Z,20.10
2017-06-02T11:34:07.825Z,20.12
2017-06-02T11:35:07.550Z,20.06
2017-06-02T11:36:07.295Z,20.11
2017-06-02T11:37:07.936Z,20.17
2017-06-02T11:38:07.580Z,20.16
2017-06-02T11:39:07.245Z,20.21
2017-06-02T11:40:07.896Z,20.19
2017-06-02T11:41:07.597Z,20.25
2017-06-02T11:42:07.194Z,20.28
2017-06-02T11:43:07.863Z,20.30
2017-06-02T11:44:07.537Z,20.32
2017-06-02T11:45:07.601Z,20.25
2017-06-02T11:46:07.899Z,20.30
2017-06-02T11:47:07.479Z,20.37
2017-06-02T11:48:07.125Z,20.40
2017-06-02T11:49:07.833Z,20.43
2017-06-02T11:50:07.446Z,20.45
2017-06-02T11:51:07.132Z,20.50
2017-06-02T11:52:07.774Z,20.55
2017-06-02T11:53:07.428Z,20.60
2017-06-02T11:54:07.070Z,20.63
2017-06-02T11:55:07.711Z,20.59
2017-06-02T11:56:07.406Z,20.53
2017-06-02T11:57:07.014Z,20.57
2017-06-02T11:58:07.636Z,20.61
2017-06-02T11:59:07.351Z,20.65
2017-06-02T12:00:07.994Z,20.60
2017-06-02T12:01:07.658Z,20.64
2017-06-02T12:02:07.289Z,20.71
2017-06-02T12:03:07.955Z,20.78
2017-06-02T12:04:07.596Z,20.83
2017-06-02T12:05:07.318Z,20.88
2017-06-02T12:06:07.036Z,20.89
2017-06-02T12:07:07.662Z,20.93
2017-06-02T12:08:07.320Z,20.98
2017-06-02T12:09:07.985Z,20.93
2017-06-02T12:10:07.657Z,20.98
2017-06-02T12:11:07.342Z,20.95
2017-06-02T12:12:07.918Z,20.88
2017-06-02T12:13:07.681Z,20.94
2017-06-02T12:14:07.317Z,20.94
2017-06-02T12:15:07.938Z,21.03
2017-06-02T12:16:07.641Z,21.07
2017-06-02T12:17:07.324Z,21.08
2017-06-02T12:18:07.063Z,21.12
2017-06-02T12:19:07.680Z,21.16
2017-06-02T12:20:07.332Z,21.15
2017-06-02T12:21:08.022Z,21.09
2017-06-02T12:22:07.614Z,21.16
2017-06-02T12:23:07.236Z,21.14
2017-06-02T12:24:07.888Z,21.16
2017-06-02T12:25:07.597Z,21.22
2017-06-02T12:26:07.233Z,21.25
2017-06-02T12:27:07.829Z,21.28
2017-06-02T12:28:07.516Z,21.27
2017-06-02T12:29:07.161Z,21.21
2017-06-02T12:30:07.830Z,21.21
2017-06-02T12:31:07.484Z,21.21
2017-06-02T12:32:07.092Z,21.20
2017-06-02T12:33:07.735Z,21.20
2017-06-02T12:34:07.384Z,21.22
2017-06-02T12:35:07.080Z,21.21
2017-06-02T12:36:07.835Z,21.17
2017-06-02T12:37:07.435Z,21.17
2017-06-02T12:38:07.129Z,21.20
2017-06-02T12:39:07.735Z,21.25
2017-06-02T12:40:07.384Z,21.22
2017-06-02T12:41:07.048Z,21.22
2017-06-02T12:42:07.779Z,21.23
2017-06-02T12:43:07.406Z,21.28
2017-06-02T12:44:07.028Z,21.33
2017-06-02T12:45:07.720Z,21.40
2017-06-02T12:46:07.410Z,21.47
2017-06-02T12:47:07.117Z,21.39
2017-06-02T12:48:07.709Z,21.46
2017-06-02T12:49:07.451Z,21.48
2017-06-02T12:50:07.983Z,21.57
2017-06-02T12:51:07.622Z,21.66
2017-06-02T12:52:07.286Z,21.75